Atlanta Naval Air Station, Georgia
Current Conditions -  °F | °C
As of 11:58 AM on Thursday 27 Nov 2014 (Local Time) from KMGE Reporting Station
Overcast Overcast  
Wind Chill:   Ceiling: 3400
Heat Index:   Visibility: 10mi
Dew Point: -1°   Wind: 14mph
Humidity: 59%   Direction: 310°NW
Pressure: 30.28"   Gusts: NA
Location:  33.9252°N, 84.5422°W
Report Text: KMGE 271658Z AUTO 31012KT 10SM BKN034 OVC047 06/M01 A3028 RMK AO2 SLP259 T00601014 $
Loading
Personal Weather Stations






























Interactive Weather Map New forecast layout! Learn more

10-Day Weather Forecast

Advertisements
Track Severe Weather on mobile